createdAt,value
2022-07-28T00:01:50.207Z,69.85
2022-07-28T00:04:18.259Z,70.24
2022-07-28T00:06:46.319Z,70.26
2022-07-28T00:09:14.594Z,70.31
2022-07-28T00:11:54.425Z,70.52
2022-07-28T00:14:24.355Z,70.67
2022-07-28T00:16:52.659Z,70.61
2022-07-28T00:19:20.835Z,70.38
2022-07-28T00:21:48.920Z,70.74
2022-07-28T00:24:17.342Z,70.73
2022-07-28T00:26:46.785Z,70.96
2022-07-28T00:29:15.243Z,70.92
2022-07-28T00:31:43.433Z,70.97
2022-07-28T00:34:12.595Z,70.89
2022-07-28T00:36:41.106Z,71.13
2022-07-28T00:39:09.390Z,71.09
2022-07-28T00:41:37.515Z,71.12
2022-07-28T00:44:08.023Z,71.03
2022-07-28T00:46:36.971Z,71.24
2022-07-28T00:49:05.949Z,71.75
2022-07-28T00:51:34.430Z,71.85
2022-07-28T00:54:04.519Z,71.99
2022-07-28T00:56:34.672Z,72.13
2022-07-28T00:59:02.697Z,72.42
2022-07-28T01:01:30.726Z,72.42
2022-07-28T01:04:02.347Z,72.50
2022-07-28T01:07:03.424Z,72.87
2022-07-28T01:09:50.039Z,73.30
2022-07-28T01:12:57.033Z,73.61
2022-07-28T01:15:33.574Z,74.31
2022-07-28T01:18:17.226Z,74.62
2022-07-28T01:20:55.559Z,75.02
2022-07-28T01:23:32.257Z,75.11
2022-07-28T01:26:24.336Z,75.63
2022-07-28T01:29:16.522Z,75.96
2022-07-28T01:32:08.755Z,76.40
2022-07-28T01:34:52.309Z,76.75
2022-07-28T01:37:25.856Z,77.07
2022-07-28T01:39:59.166Z,77.62
2022-07-28T01:42:37.262Z,77.95
2022-07-28T01:45:08.340Z,78.27
2022-07-28T01:47:37.731Z,78.49
2022-07-28T01:50:10.471Z,78.88
2022-07-28T01:52:42.050Z,79.13
2022-07-28T01:55:14.031Z,79.52
2022-07-28T01:57:44.475Z,79.89
2022-07-28T02:00:14.339Z,80.28
2022-07-28T02:02:46.286Z,80.55
2022-07-28T02:05:19.285Z,80.78
2022-07-28T02:07:51.631Z,81.31
2022-07-28T02:10:22.074Z,81.57
2022-07-28T02:12:53.328Z,82.08
2022-07-28T02:15:22.545Z,82.38
2022-07-28T02:17:53.756Z,82.42
2022-07-28T02:20:23.630Z,82.58
2022-07-28T02:22:54.460Z,82.86
2022-07-28T02:25:22.704Z,83.13
2022-07-28T02:28:05.611Z,83.72
2022-07-28T02:30:48.160Z,84.33
2022-07-28T02:33:57.963Z,84.45
2022-07-28T02:36:16.199Z,84.55
2022-07-28T02:38:51.967Z,84.69
2022-07-28T02:41:27.509Z,84.91
2022-07-28T02:44:00.158Z,85.54
2022-07-28T02:46:38.434Z,85.84
2022-07-28T02:49:12.501Z,86.01
2022-07-28T02:51:43.416Z,86.36
2022-07-28T02:54:13.710Z,86.56
2022-07-28T02:56:42.457Z,87.01
2022-07-28T02:59:23.735Z,87.32
2022-07-28T03:01:53.132Z,87.50
2022-07-28T03:04:43.515Z,87.76
2022-07-28T03:07:11.873Z,88.05
2022-07-28T03:09:42.576Z,87.90
2022-07-28T03:12:11.667Z,88.06
2022-07-28T03:14:40.250Z,88.21
2022-07-28T03:17:09.457Z,88.44
2022-07-28T03:19:37.636Z,88.67
2022-07-28T03:22:10.370Z,88.85
2022-07-28T03:24:44.584Z,88.55
2022-07-28T03:27:33.295Z,88.39
2022-07-28T03:30:07.259Z,88.31
2022-07-28T03:32:38.767Z,88.41
2022-07-28T03:35:07.186Z,88.38
2022-07-28T03:38:06.399Z,88.38
2022-07-28T03:40:37.954Z,88.50
2022-07-28T03:43:08.918Z,88.54
2022-07-28T03:45:41.081Z,88.63
2022-07-28T03:48:10.404Z,88.57
2022-07-28T03:50:38.475Z,88.40
2022-07-28T03:53:14.077Z,88.43
2022-07-28T03:55:42.156Z,88.10
2022-07-28T03:58:10.116Z,88.02
2022-07-28T04:00:38.179Z,87.88
2022-07-28T04:03:42.322Z,87.57
2022-07-28T04:05:58.028Z,87.97
2022-07-28T04:08:26.038Z,87.87
2022-07-28T04:10:53.991Z,87.75
2022-07-28T04:13:22.005Z,87.69
2022-07-28T04:15:50.037Z,87.72
2022-07-28T04:18:18.821Z,87.60
2022-07-28T04:20:46.937Z,87.71
2022-07-28T04:23:14.799Z,87.28
2022-07-28T04:25:42.906Z,87.17
2022-07-28T04:28:10.970Z,86.79
2022-07-28T04:30:43.896Z,86.41
2022-07-28T04:33:13.032Z,86.02
2022-07-28T04:35:41.055Z,85.92
2022-07-28T04:38:09.183Z,85.74
2022-07-28T04:40:37.274Z,85.69
2022-07-28T04:43:06.217Z,85.48
2022-07-28T04:45:34.572Z,85.37
2022-07-28T04:48:02.891Z,85.17
2022-07-28T04:50:30.967Z,85.06
2022-07-28T04:52:59.529Z,85.03
2022-07-28T04:55:27.751Z,84.95
2022-07-28T04:57:55.851Z,85.12
2022-07-28T05:00:24.018Z,84.85
2022-07-28T05:05:44.076Z,84.67
2022-07-28T05:08:17.082Z,83.17
2022-07-28T05:10:46.001Z,82.23
2022-07-28T05:13:13.927Z,81.81
2022-07-28T05:15:49.784Z,79.62
2022-07-28T05:18:17.839Z,75.90
2022-07-28T05:20:45.758Z,74.33
2022-07-28T05:23:13.672Z,71.36
2022-07-28T05:25:41.591Z,69.24
2022-07-28T05:28:09.592Z,67.60
2022-07-28T05:30:38.565Z,66.40
2022-07-28T05:33:06.449Z,66.46
2022-07-28T05:35:34.452Z,66.80
2022-07-28T05:38:03.670Z,66.67
2022-07-28T05:40:33.645Z,64.24
2022-07-28T05:43:01.587Z,63.95
2022-07-28T05:45:29.688Z,62.65
2022-07-28T05:47:57.593Z,62.79
2022-07-28T05:50:26.695Z,60.22
2022-07-28T05:52:54.778Z,55.71
2022-07-28T05:55:22.943Z,53.18
2022-07-28T05:57:51.329Z,51.52
2022-07-28T06:00:21.247Z,48.38
2022-07-28T06:02:50.697Z,47.96
2022-07-28T06:05:21.606Z,45.93
2022-07-28T06:07:51.804Z,45.74
2022-07-28T06:10:25.372Z,46.51
2022-07-28T06:12:55.346Z,45.14
2022-07-28T06:15:25.919Z,45.13
2022-07-28T06:17:58.206Z,43.28
2022-07-28T06:20:28.874Z,41.41
2022-07-28T06:22:56.851Z,40.98
2022-07-28T06:25:27.736Z,41.26
2022-07-28T06:27:57.817Z,40.78
2022-07-28T06:30:27.432Z,39.70
2022-07-28T06:32:56.765Z,38.94
2022-07-28T06:35:27.944Z,39.12
2022-07-28T06:37:56.071Z,39.88
2022-07-28T06:40:24.721Z,40.43
2022-07-28T06:42:52.697Z,39.16
2022-07-28T06:45:21.806Z,39.38
2022-07-28T06:47:50.946Z,39.18
2022-07-28T06:50:26.510Z,39.41
2022-07-28T06:52:59.106Z,38.26
2022-07-28T06:55:31.325Z,38.36
2022-07-28T06:58:06.371Z,39.69
2022-07-28T07:00:34.604Z,41.26
2022-07-28T07:03:09.616Z,38.50
2022-07-28T07:05:40.662Z,38.59
2022-07-28T07:08:08.682Z,37.57
2022-07-28T07:10:36.670Z,37.49
2022-07-28T07:13:05.059Z,38.18
2022-07-28T07:15:34.959Z,38.47
2022-07-28T07:18:07.709Z,39.30
2022-07-28T07:20:36.480Z,37.24
2022-07-28T07:23:07.619Z,37.65
2022-07-28T07:25:41.533Z,38.05
2022-07-28T07:28:11.967Z,36.48
2022-07-28T07:30:40.316Z,36.44
2022-07-28T07:33:10.906Z,37.03
2022-07-28T07:35:39.101Z,37.11
2022-07-28T07:38:07.466Z,35.97
2022-07-28T07:40:35.750Z,36.17
2022-07-28T07:43:04.700Z,35.37
2022-07-28T07:45:34.517Z,34.83
2022-07-28T07:48:03.909Z,35.13
2022-07-28T07:50:38.906Z,35.24
2022-07-28T07:53:07.156Z,35.50
2022-07-28T07:55:37.961Z,34.24
2022-07-28T07:58:06.546Z,32.68
2022-07-28T08:00:34.675Z,33.47
2022-07-28T08:03:02.835Z,34.93
2022-07-28T08:05:35.511Z,34.90
2022-07-28T08:08:05.687Z,35.20
2022-07-28T08:10:37.921Z,34.85
2022-07-28T08:13:08.001Z,33.82
2022-07-28T08:15:36.057Z,33.61
2022-07-28T08:18:04.890Z,32.96
2022-07-28T08:20:32.989Z,32.58
2022-07-28T08:23:01.371Z,32.69
2022-07-28T08:25:29.290Z,33.04
2022-07-28T08:27:57.238Z,33.60
2022-07-28T08:30:30.265Z,32.59
2022-07-28T08:33:02.534Z,32.98
2022-07-28T08:35:33.501Z,34.13
2022-07-28T08:38:04.597Z,33.70
2022-07-28T08:40:32.995Z,33.94
2022-07-28T08:43:21.217Z,33.06
2022-07-28T08:45:52.504Z,31.49
2022-07-28T08:48:23.730Z,31.78
2022-07-28T08:50:54.088Z,31.39
2022-07-28T08:53:30.697Z,30.49
2022-07-28T08:56:05.851Z,31.28
2022-07-28T08:58:36.802Z,30.88
2022-07-28T09:01:08.645Z,31.27
2022-07-28T09:03:39.277Z,31.87
2022-07-28T09:06:08.470Z,32.81
2022-07-28T09:08:37.340Z,32.59
2022-07-28T09:11:07.027Z,32.82
2022-07-28T09:13:36.545Z,31.73
2022-07-28T09:16:06.923Z,31.07
2022-07-28T09:18:35.208Z,29.71
2022-07-28T09:21:03.221Z,29.63
2022-07-28T09:23:48.944Z,31.41
2022-07-28T09:26:18.661Z,31.17
2022-07-28T09:28:59.279Z,30.47
2022-07-28T09:31:29.408Z,30.15
2022-07-28T09:34:02.654Z,32.16
2022-07-28T09:36:39.202Z,34.43
2022-07-28T09:39:08.403Z,34.40
2022-07-28T09:41:53.386Z,32.53
2022-07-28T09:44:23.375Z,30.30
2022-07-28T09:46:51.512Z,29.88
2022-07-28T09:49:22.887Z,30.55
2022-07-28T09:52:02.750Z,30.34
2022-07-28T09:54:30.756Z,29.09
2022-07-28T09:56:59.416Z,29.07
2022-07-28T09:59:46.194Z,29.69
2022-07-28T10:02:24.960Z,29.47
2022-07-28T10:04:54.629Z,29.11
2022-07-28T10:07:22.775Z,29.17
2022-07-28T10:10:01.016Z,28.45
2022-07-28T10:12:31.599Z,28.06
2022-07-28T10:15:34.839Z,26.73
2022-07-28T10:18:03.728Z,26.48
2022-07-28T10:20:34.760Z,26.94
2022-07-28T10:23:09.566Z,26.55
2022-07-28T10:25:40.597Z,26.71
2022-07-28T10:28:12.069Z,26.39
2022-07-28T10:30:41.448Z,26.28
2022-07-28T10:33:15.186Z,25.00
2022-07-28T10:35:54.769Z,25.46
2022-07-28T10:38:28.806Z,25.33
2022-07-28T10:40:59.821Z,24.60
2022-07-28T10:43:32.849Z,24.00
2022-07-28T10:46:06.833Z,23.18
2022-07-28T10:48:39.251Z,24.44
2022-07-28T10:51:07.672Z,26.51
2022-07-28T10:53:39.512Z,26.80
2022-07-28T10:56:18.869Z,24.71
2022-07-28T10:59:04.696Z,25.06
2022-07-28T11:01:51.913Z,26.02
2022-07-28T11:04:52.023Z,26.31
2022-07-28T11:07:21.177Z,25.08
2022-07-28T11:09:50.135Z,25.03
2022-07-28T11:12:48.885Z,25.16
2022-07-28T11:15:38.101Z,25.72
2022-07-28T11:18:10.840Z,27.74
2022-07-28T11:20:51.625Z,28.06
2022-07-28T11:23:58.369Z,25.70
2022-07-28T11:26:31.102Z,23.18
2022-07-28T11:29:06.016Z,22.78
2022-07-28T11:31:48.784Z,22.32
2022-07-28T11:34:23.707Z,21.83
2022-07-28T11:37:01.621Z,22.44
2022-07-28T11:39:43.867Z,22.53
2022-07-28T11:42:29.481Z,24.17
2022-07-28T11:45:23.125Z,25.97
2022-07-28T11:48:17.103Z,25.24
2022-07-28T11:51:14.328Z,24.60
2022-07-28T11:53:48.494Z,24.18
2022-07-28T11:56:24.472Z,25.89
2022-07-28T11:59:07.230Z,27.28
2022-07-28T12:01:37.094Z,24.58
2022-07-28T12:04:19.099Z,24.13
2022-07-28T12:06:51.660Z,22.64
2022-07-28T12:09:25.617Z,23.09
2022-07-28T12:11:56.098Z,23.31
2022-07-28T12:14:24.401Z,22.57
2022-07-28T12:16:53.263Z,21.83
2022-07-28T12:19:21.879Z,23.21
2022-07-28T12:21:55.354Z,23.02
2022-07-28T12:24:29.617Z,23.11
2022-07-28T12:27:00.564Z,22.84
2022-07-28T12:29:32.219Z,22.41
2022-07-28T12:32:06.722Z,21.67
2022-07-28T12:34:35.698Z,23.16
2022-07-28T12:37:12.592Z,22.55
2022-07-28T12:39:43.023Z,22.23
2022-07-28T12:42:12.864Z,20.80
2022-07-28T12:44:44.081Z,20.72
2022-07-28T12:47:14.391Z,20.63
2022-07-28T12:49:44.829Z,22.42
2022-07-28T12:52:22.311Z,21.64
2022-07-28T12:54:55.226Z,21.07
2022-07-28T12:57:50.538Z,21.30
2022-07-28T13:00:31.906Z,21.98
2022-07-28T13:03:19.581Z,23.43
2022-07-28T13:06:03.425Z,23.72
2022-07-28T13:08:44.008Z,22.94
2022-07-28T13:14:12.946Z,23.35
2022-07-28T13:16:41.206Z,23.87
2022-07-28T13:19:21.538Z,24.48
2022-07-28T13:22:01.690Z,24.98
2022-07-28T13:24:31.593Z,24.87
2022-07-28T13:27:01.754Z,23.87
2022-07-28T13:29:34.889Z,22.76
2022-07-28T13:32:03.017Z,23.13
2022-07-28T13:34:31.110Z,23.44
2022-07-28T13:36:59.226Z,23.62
2022-07-28T13:39:27.995Z,23.52
2022-07-28T13:41:58.178Z,22.96
2022-07-28T13:44:28.878Z,22.37
2022-07-28T13:46:59.736Z,23.29
2022-07-28T13:49:33.297Z,23.83
2022-07-28T13:52:02.416Z,22.86
2022-07-28T13:54:30.417Z,22.77
2022-07-28T13:57:14.216Z,23.71
2022-07-28T13:59:43.829Z,23.41
2022-07-28T14:02:15.159Z,23.66
2022-07-28T14:04:49.002Z,23.51
2022-07-28T14:07:20.826Z,23.28
2022-07-28T14:09:52.805Z,23.45
2022-07-28T14:12:22.490Z,23.70
2022-07-28T14:14:53.084Z,23.82
2022-07-28T14:17:43.718Z,23.29
2022-07-28T14:20:12.302Z,24.36
2022-07-28T14:22:40.398Z,24.56
2022-07-28T14:25:09.000Z,23.76
2022-07-28T14:27:38.031Z,24.88
2022-07-28T14:30:07.047Z,24.68
2022-07-28T14:32:38.758Z,24.10
2022-07-28T14:35:07.411Z,24.19
2022-07-28T14:37:55.031Z,23.67
2022-07-28T14:40:24.187Z,22.90
2022-07-28T14:42:52.099Z,24.14
2022-07-28T14:45:20.045Z,23.35
2022-07-28T14:47:47.966Z,23.14
2022-07-28T14:50:15.951Z,24.73
2022-07-28T14:52:45.053Z,26.21
2022-07-28T14:55:13.834Z,27.56
2022-07-28T14:57:50.231Z,28.15
2022-07-28T15:00:22.206Z,28.03
2022-07-28T15:02:51.953Z,27.43
2022-07-28T15:05:21.111Z,27.04
2022-07-28T15:07:52.357Z,26.93
2022-07-28T15:10:21.548Z,26.09
2022-07-28T15:12:50.919Z,25.25
2022-07-28T15:15:21.388Z,25.08
2022-07-28T15:17:49.241Z,25.11
2022-07-28T15:20:17.227Z,25.66
2022-07-28T15:22:45.116Z,26.09
2022-07-28T15:25:13.099Z,24.78
2022-07-28T15:27:45.625Z,22.28
2022-07-28T15:30:14.395Z,20.27
2022-07-28T15:32:54.591Z,20.00
2022-07-28T15:35:26.195Z,19.68
2022-07-28T15:37:55.068Z,18.44
2022-07-28T15:40:23.490Z,19.49
2022-07-28T15:42:53.232Z,19.75
2022-07-28T15:45:21.197Z,21.73
2022-07-28T15:47:49.222Z,22.99
2022-07-28T15:50:17.335Z,23.53
2022-07-28T15:52:45.396Z,25.07
2022-07-28T15:55:13.436Z,26.46
2022-07-28T15:57:41.302Z,27.57
2022-07-28T16:00:09.871Z,29.01
2022-07-28T16:02:37.775Z,29.25
2022-07-28T16:05:06.089Z,29.77
2022-07-28T16:07:35.361Z,29.35
2022-07-28T16:10:04.711Z,29.35
2022-07-28T16:12:33.646Z,29.79
2022-07-28T16:15:02.029Z,29.91
2022-07-28T16:17:30.022Z,29.60
2022-07-28T16:20:02.426Z,30.25
2022-07-28T16:22:30.783Z,30.86
2022-07-28T16:24:58.662Z,32.41
2022-07-28T16:27:26.540Z,31.50
2022-07-28T16:29:54.793Z,32.55
2022-07-28T16:32:22.802Z,34.01
2022-07-28T16:34:54.964Z,33.96
2022-07-28T16:37:22.961Z,34.14
2022-07-28T16:39:51.041Z,34.73
2022-07-28T16:42:19.036Z,34.30
2022-07-28T16:44:47.575Z,34.47
2022-07-28T16:47:16.009Z,34.92
2022-07-28T16:49:46.199Z,33.34
2022-07-28T16:52:15.519Z,34.33
2022-07-28T16:54:43.767Z,34.66
2022-07-28T16:57:12.557Z,33.18
2022-07-28T16:59:48.732Z,34.27
2022-07-28T17:02:19.441Z,35.16
2022-07-28T17:04:47.889Z,35.64
2022-07-28T17:07:15.898Z,35.76
2022-07-28T17:09:44.645Z,35.44
2022-07-28T17:12:13.470Z,35.82
2022-07-28T17:14:41.438Z,36.87
2022-07-28T17:17:09.601Z,36.95
2022-07-28T17:19:41.996Z,37.36
2022-07-28T17:22:15.264Z,37.80
2022-07-28T17:24:43.252Z,38.64
2022-07-28T17:29:59.066Z,39.54
2022-07-28T17:32:26.976Z,39.97
2022-07-28T17:34:55.770Z,40.29
2022-07-28T17:37:23.605Z,40.96
2022-07-28T17:39:51.741Z,41.91
2022-07-28T17:42:19.839Z,42.65
2022-07-28T17:44:48.883Z,42.98
2022-07-28T17:47:17.105Z,43.73
2022-07-28T17:49:45.726Z,44.48
2022-07-28T17:52:13.711Z,45.10
2022-07-28T17:55:00.718Z,45.78
2022-07-28T17:57:31.018Z,47.21
2022-07-28T18:00:06.864Z,46.90
2022-07-28T18:02:34.780Z,46.94
2022-07-28T18:05:02.704Z,47.24
2022-07-28T18:07:30.762Z,47.95
2022-07-28T18:10:24.532Z,48.35
2022-07-28T18:12:52.948Z,48.81
2022-07-28T18:15:20.854Z,49.82
2022-07-28T18:17:55.230Z,50.30
2022-07-28T18:20:24.483Z,51.07
2022-07-28T18:22:52.477Z,51.43
2022-07-28T18:25:21.355Z,51.58
2022-07-28T18:27:49.426Z,52.21
2022-07-28T18:30:18.215Z,52.62
2022-07-28T18:32:46.181Z,52.58
2022-07-28T18:35:14.945Z,52.67
2022-07-28T18:37:45.962Z,52.65
2022-07-28T18:40:16.403Z,53.10
2022-07-28T18:42:46.452Z,53.80
2022-07-28T18:45:15.503Z,54.57
2022-07-28T18:47:46.209Z,55.60
2022-07-28T18:50:30.462Z,56.05
2022-07-28T18:53:00.090Z,56.75
2022-07-28T18:55:28.147Z,57.03
2022-07-28T18:57:56.378Z,57.17
2022-07-28T19:00:24.432Z,57.66
2022-07-28T19:02:52.864Z,58.12
2022-07-28T19:05:20.910Z,58.79
2022-07-28T19:07:48.877Z,59.26
2022-07-28T19:10:16.821Z,59.46
2022-07-28T19:12:47.088Z,59.59
2022-07-28T19:15:15.051Z,59.49
2022-07-28T19:17:42.976Z,59.93
2022-07-28T19:20:12.122Z,60.51
2022-07-28T19:22:40.569Z,60.94
2022-07-28T19:25:09.031Z,60.85
2022-07-28T19:27:37.426Z,60.99
2022-07-28T19:30:07.582Z,61.22
2022-07-28T19:32:35.859Z,61.97
2022-07-28T19:35:04.286Z,62.02
2022-07-28T19:37:32.463Z,62.23
2022-07-28T19:40:00.254Z,62.19
2022-07-28T19:42:30.524Z,62.70
2022-07-28T19:44:58.466Z,63.05
2022-07-28T19:47:26.438Z,63.11
2022-07-28T19:49:54.346Z,63.05
2022-07-28T19:52:24.157Z,63.37
2022-07-28T19:54:52.876Z,63.68
2022-07-28T19:57:23.298Z,63.87
2022-07-28T19:59:51.164Z,63.74
2022-07-28T20:02:19.175Z,64.13
2022-07-28T20:04:47.176Z,64.88
2022-07-28T20:07:15.309Z,65.51
2022-07-28T20:09:43.218Z,65.99
2022-07-28T20:12:11.256Z,66.38
2022-07-28T20:14:39.186Z,66.69
2022-07-28T20:17:07.494Z,66.73
2022-07-28T20:19:35.527Z,66.73
2022-07-28T20:22:03.500Z,67.08
2022-07-28T20:24:31.433Z,67.25
2022-07-28T20:27:01.207Z,67.16
2022-07-28T20:29:29.086Z,67.39
2022-07-28T20:31:56.978Z,67.67
2022-07-28T20:34:24.898Z,67.74
2022-07-28T20:36:54.506Z,68.24
2022-07-28T20:39:43.749Z,68.42
2022-07-28T20:42:10.847Z,68.99
2022-07-28T20:44:38.969Z,69.51
2022-07-28T20:47:07.053Z,69.95
2022-07-28T20:49:34.976Z,69.68
2022-07-28T20:52:03.671Z,69.98
2022-07-28T20:54:32.476Z,70.40
2022-07-28T20:57:00.555Z,70.26
2022-07-28T20:59:28.474Z,70.27
2022-07-28T21:01:56.908Z,70.48
2022-07-28T21:04:26.663Z,70.55
2022-07-28T21:07:01.740Z,70.89
2022-07-28T21:09:30.308Z,71.04
2022-07-28T21:11:58.215Z,71.63
2022-07-28T21:14:26.204Z,71.69
2022-07-28T21:16:55.114Z,71.92
2022-07-28T21:19:23.081Z,72.15
2022-07-28T21:21:51.270Z,72.52
2022-07-28T21:24:19.403Z,72.80
2022-07-28T21:26:49.886Z,73.29
2022-07-28T21:32:04.100Z,74.18
2022-07-28T21:34:34.989Z,74.54
2022-07-28T21:37:06.915Z,74.82
2022-07-28T21:39:36.045Z,74.58
2022-07-28T21:42:07.780Z,74.73
2022-07-28T21:44:37.607Z,75.15
2022-07-28T21:47:05.912Z,75.37
2022-07-28T21:49:34.074Z,75.74
2022-07-28T21:52:02.091Z,76.20
2022-07-28T21:54:30.305Z,76.72
2022-07-28T21:56:58.306Z,77.02
2022-07-28T21:59:26.300Z,76.99
2022-07-28T22:01:54.233Z,76.91
2022-07-28T22:04:22.389Z,76.96
2022-07-28T22:06:50.839Z,76.70
2022-07-28T22:09:18.746Z,76.52
2022-07-28T22:11:46.590Z,76.71
2022-07-28T22:14:14.750Z,76.93
2022-07-28T22:16:42.885Z,76.96
2022-07-28T22:19:12.358Z,76.96
2022-07-28T22:21:40.275Z,76.92
2022-07-28T22:24:08.916Z,77.03
2022-07-28T22:26:37.061Z,77.14
2022-07-28T22:29:05.286Z,77.03
2022-07-28T22:31:33.273Z,77.32
2022-07-28T22:34:01.408Z,77.04
2022-07-28T22:36:29.416Z,77.28
2022-07-28T22:38:57.412Z,77.44
2022-07-28T22:41:25.579Z,77.54
2022-07-28T22:43:54.686Z,77.67
2022-07-28T22:46:22.808Z,77.76
2022-07-28T22:48:51.040Z,78.02
2022-07-28T22:51:19.089Z,78.10
2022-07-28T22:53:46.980Z,78.19
2022-07-28T22:56:15.009Z,78.30
2022-07-28T22:58:43.180Z,78.50
2022-07-28T23:01:11.370Z,78.32
2022-07-28T23:09:26.981Z,78.66
2022-07-28T23:11:55.599Z,78.70
2022-07-28T23:14:24.333Z,78.79
2022-07-28T23:16:52.127Z,79.16
2022-07-28T23:19:20.042Z,79.29
2022-07-28T23:21:48.036Z,79.54
2022-07-28T23:24:16.462Z,79.82
2022-07-28T23:26:44.989Z,80.14
2022-07-28T23:29:12.946Z,80.30
2022-07-28T23:31:40.978Z,80.33
2022-07-28T23:34:09.157Z,80.23
2022-07-28T23:36:37.104Z,80.26
2022-07-28T23:39:05.021Z,80.58
2022-07-28T23:41:32.943Z,80.66
2022-07-28T23:44:00.857Z,80.94
2022-07-28T23:46:28.905Z,81.17
2022-07-28T23:48:56.847Z,81.13
2022-07-28T23:51:46.894Z,81.29
2022-07-28T23:54:14.581Z,81.21
2022-07-28T23:56:43.612Z,81.50
2022-07-28T23:59:13.992Z,81.73
